Afton, California
Current Conditions -  °F | °C
As of 10:53 AM on Thursday 18 Dec 2014 (Local Time) from KOVE Reporting Station
Overcast Overcast  
Wind Chill: 13°   Ceiling: 3400
Heat Index: 13°   Visibility: 10mi
Dew Point:   Wind: 0mph
Humidity: 74%   Direction: NA
Pressure: 30.22"   Gusts: NA
Location:  39.4608°N, 121.937°W
Report Text: KOVE 181853Z AUTO 00000KT 10SM BKN034 OVC041 13/08 A3022 RMK AO2 SLP235 T01280083
Loading
Personal Weather Stations






























Interactive Weather Map New forecast layout! Learn more

10-Day Weather Forecast

Advertisements
Track Severe Weather on mobile